createdAt,value
2023-05-05T00:01:55.861Z,58.92
2023-05-05T00:04:41.084Z,59.21
2023-05-05T00:07:26.202Z,58.92
2023-05-05T00:10:14.748Z,58.46
2023-05-05T00:13:06.534Z,58.44
2023-05-05T00:15:56.358Z,58.50
2023-05-05T00:18:41.714Z,58.38
2023-05-05T00:21:27.851Z,58.72
2023-05-05T00:24:12.916Z,58.54
2023-05-05T00:26:58.110Z,58.24
2023-05-05T00:29:43.236Z,58.11
2023-05-05T00:32:28.655Z,58.14
2023-05-05T00:35:13.890Z,58.48
2023-05-05T00:37:59.464Z,58.42
2023-05-05T00:40:44.773Z,58.34
2023-05-05T00:43:30.234Z,58.21
2023-05-05T00:46:24.325Z,58.38
2023-05-05T00:49:10.121Z,57.60
2023-05-05T00:51:56.092Z,57.28
2023-05-05T00:54:41.545Z,57.43
2023-05-05T00:57:28.480Z,57.71
2023-05-05T01:00:14.285Z,57.59
2023-05-05T01:03:00.001Z,57.28
2023-05-05T01:06:01.664Z,57.08
2023-05-05T01:12:07.633Z,57.28
2023-05-05T01:15:01.191Z,57.05
2023-05-05T01:18:33.049Z,57.28
2023-05-05T01:21:53.621Z,57.10
2023-05-05T01:24:47.581Z,57.75
2023-05-05T01:27:59.320Z,57.01
2023-05-05T01:31:03.411Z,57.30
2023-05-05T01:33:51.902Z,57.28
2023-05-05T01:36:45.354Z,57.50
2023-05-05T01:39:34.910Z,57.39
2023-05-05T01:42:21.072Z,57.05
2023-05-05T01:45:09.265Z,57.32
2023-05-05T01:47:56.998Z,57.90
2023-05-05T01:50:46.598Z,57.75
2023-05-05T01:53:33.278Z,57.67
2023-05-05T01:56:22.680Z,57.79
2023-05-05T01:59:09.893Z,57.99
2023-05-05T02:01:57.358Z,57.90
2023-05-05T02:04:44.162Z,58.05
2023-05-05T02:07:33.107Z,58.36
2023-05-05T02:10:18.662Z,58.36
2023-05-05T02:13:05.936Z,58.45
2023-05-05T02:15:53.279Z,58.47
2023-05-05T02:18:39.073Z,58.79
2023-05-05T02:21:24.116Z,58.72
2023-05-05T02:24:09.502Z,58.81
2023-05-05T02:26:57.979Z,58.79
2023-05-05T02:29:53.627Z,58.82
2023-05-05T02:32:50.528Z,59.06
2023-05-05T02:35:42.036Z,58.98
2023-05-05T02:38:33.187Z,58.84
2023-05-05T02:41:20.968Z,58.89
2023-05-05T02:44:08.291Z,58.79
2023-05-05T02:46:54.950Z,58.20
2023-05-05T02:49:42.998Z,58.24
2023-05-05T02:52:28.540Z,58.31
2023-05-05T02:55:13.810Z,58.35
2023-05-05T02:58:21.574Z,58.35
2023-05-05T03:01:29.263Z,57.98
2023-05-05T03:04:29.192Z,57.98
2023-05-05T03:07:27.612Z,57.75
2023-05-05T03:10:18.359Z,57.78
2023-05-05T03:13:11.261Z,57.58
2023-05-05T03:16:06.540Z,57.38
2023-05-05T03:18:52.840Z,57.79
2023-05-05T03:21:40.070Z,57.85
2023-05-05T03:24:25.939Z,57.85
2023-05-05T03:27:20.374Z,57.96
2023-05-05T03:30:06.757Z,58.03
2023-05-05T03:32:54.920Z,57.93
2023-05-05T03:35:40.192Z,58.41
2023-05-05T03:38:28.075Z,58.50
2023-05-05T03:41:13.509Z,58.66
2023-05-05T03:43:59.586Z,58.77
2023-05-05T03:46:45.623Z,59.17
2023-05-05T03:49:33.116Z,59.08
2023-05-05T03:52:18.571Z,59.31
2023-05-05T03:55:04.281Z,59.52
2023-05-05T03:57:49.449Z,59.70
2023-05-05T04:00:34.863Z,59.79
2023-05-05T04:03:20.505Z,60.21
2023-05-05T04:06:06.110Z,59.94
2023-05-05T04:08:51.820Z,60.15
2023-05-05T04:11:36.785Z,60.24
2023-05-05T04:14:22.266Z,60.46
2023-05-05T04:17:07.986Z,60.40
2023-05-05T04:19:53.899Z,60.40
2023-05-05T04:22:39.084Z,60.52
2023-05-05T04:25:24.420Z,60.47
2023-05-05T04:28:09.712Z,60.51
2023-05-05T04:30:55.050Z,60.13
2023-05-05T04:33:40.343Z,59.91
2023-05-05T04:36:25.981Z,59.70
2023-05-05T04:39:11.735Z,59.64
2023-05-05T04:41:56.838Z,59.32
2023-05-05T04:44:42.776Z,59.50
2023-05-05T04:47:28.037Z,59.67
2023-05-05T04:50:13.885Z,59.59
2023-05-05T04:52:59.018Z,59.76
2023-05-05T04:55:44.420Z,59.17
2023-05-05T04:58:29.903Z,59.50
2023-05-05T05:01:14.914Z,59.84
2023-05-05T05:04:00.492Z,59.62
2023-05-05T05:06:45.980Z,59.37
2023-05-05T05:09:31.569Z,59.11
2023-05-05T05:12:17.224Z,59.03
2023-05-05T05:15:02.620Z,58.28
2023-05-05T05:17:48.332Z,58.16
2023-05-05T05:20:33.718Z,57.64
2023-05-05T05:23:19.399Z,57.53
2023-05-05T05:26:06.405Z,56.96
2023-05-05T05:28:52.445Z,56.70
2023-05-05T05:31:39.663Z,56.37
2023-05-05T05:34:25.939Z,56.34
2023-05-05T05:37:11.358Z,56.49
2023-05-05T05:39:56.862Z,56.32
2023-05-05T05:42:43.763Z,55.93
2023-05-05T05:45:29.450Z,55.72
2023-05-05T05:48:15.213Z,55.34
2023-05-05T05:51:02.005Z,55.35
2023-05-05T05:53:47.554Z,55.12
2023-05-05T05:56:33.061Z,55.10
2023-05-05T05:59:18.931Z,54.21
2023-05-05T06:02:04.468Z,53.58
2023-05-05T06:04:51.004Z,52.98
2023-05-05T06:07:36.122Z,51.96
2023-05-05T06:13:12.219Z,51.50
2023-05-05T06:16:01.504Z,51.61
2023-05-05T06:18:47.093Z,51.25
2023-05-05T06:21:32.589Z,51.35
2023-05-05T06:24:17.943Z,50.64
2023-05-05T06:27:03.609Z,50.38
2023-05-05T06:29:49.045Z,49.98
2023-05-05T06:32:34.552Z,48.87
2023-05-05T06:35:20.961Z,48.44
2023-05-05T06:38:06.448Z,48.41
2023-05-05T06:40:51.703Z,48.65
2023-05-05T06:43:37.064Z,48.67
2023-05-05T06:46:26.169Z,48.67
2023-05-05T06:49:11.388Z,48.85
2023-05-05T06:51:56.941Z,48.50
2023-05-05T06:54:43.619Z,47.90
2023-05-05T06:57:29.089Z,47.68
2023-05-05T07:00:15.004Z,47.03
2023-05-05T07:03:00.629Z,46.73
2023-05-05T07:05:45.936Z,47.12
2023-05-05T07:08:31.304Z,47.15
2023-05-05T07:11:16.810Z,47.27
2023-05-05T07:14:02.250Z,46.83
2023-05-05T07:16:47.519Z,46.28
2023-05-05T07:19:35.190Z,46.05
2023-05-05T07:22:20.512Z,45.52
2023-05-05T07:25:06.581Z,45.79
2023-05-05T07:27:51.618Z,45.70
2023-05-05T07:30:39.605Z,45.42
2023-05-05T07:36:48.567Z,45.35
2023-05-05T07:39:33.943Z,45.32
2023-05-05T07:42:20.851Z,45.09
2023-05-05T07:45:07.802Z,45.05
2023-05-05T07:47:52.926Z,44.43
2023-05-05T07:50:38.467Z,44.52
2023-05-05T07:53:23.654Z,44.54
2023-05-05T07:56:09.248Z,44.03
2023-05-05T07:58:55.111Z,44.41
2023-05-05T08:01:40.283Z,45.04
2023-05-05T08:04:25.844Z,45.00
2023-05-05T08:07:11.001Z,45.14
2023-05-05T08:09:56.240Z,44.70
2023-05-05T08:12:41.673Z,43.96
2023-05-05T08:15:26.782Z,43.26
2023-05-05T08:18:12.361Z,43.04
2023-05-05T08:20:57.922Z,43.58
2023-05-05T08:23:43.976Z,43.52
2023-05-05T08:26:29.036Z,43.50
2023-05-05T08:29:13.972Z,43.64
2023-05-05T08:31:59.564Z,43.63
2023-05-05T08:34:45.385Z,43.83
2023-05-05T08:37:34.266Z,44.05
2023-05-05T08:40:22.789Z,43.61
2023-05-05T08:43:08.192Z,43.72
2023-05-05T08:45:56.130Z,42.57
2023-05-05T08:48:45.804Z,43.26
2023-05-05T08:51:41.781Z,42.46
2023-05-05T08:54:30.638Z,41.81
2023-05-05T08:57:23.066Z,42.20
2023-05-05T09:00:10.203Z,41.67
2023-05-05T09:03:03.191Z,41.72
2023-05-05T09:05:48.765Z,41.45
2023-05-05T09:08:34.164Z,41.36
2023-05-05T09:11:19.901Z,41.78
2023-05-05T09:14:05.373Z,41.28
2023-05-05T09:16:50.601Z,41.03
2023-05-05T09:20:05.674Z,40.84
2023-05-05T09:22:51.501Z,40.27
2023-05-05T09:25:36.882Z,40.58
2023-05-05T09:28:22.126Z,40.81
2023-05-05T09:31:16.274Z,40.86
2023-05-05T09:34:03.570Z,41.31
2023-05-05T09:36:49.312Z,41.43
2023-05-05T09:39:35.067Z,41.23
2023-05-05T09:42:23.431Z,40.90
2023-05-05T09:45:27.597Z,40.99
2023-05-05T09:48:30.498Z,41.38
2023-05-05T09:51:16.103Z,41.16
2023-05-05T09:54:01.681Z,41.00
2023-05-05T09:56:47.623Z,40.46
2023-05-05T09:59:32.876Z,40.37
2023-05-05T10:02:18.231Z,39.75
2023-05-05T10:05:14.487Z,40.10
2023-05-05T10:08:13.188Z,40.39
2023-05-05T10:11:00.826Z,39.96
2023-05-05T10:13:46.360Z,39.55
2023-05-05T10:16:33.177Z,39.08
2023-05-05T10:19:24.167Z,39.06
2023-05-05T10:22:10.739Z,39.06
2023-05-05T10:25:03.032Z,39.07
2023-05-05T10:27:52.862Z,39.08
2023-05-05T10:30:49.032Z,38.80
2023-05-05T10:33:47.714Z,39.08
2023-05-05T10:36:33.403Z,39.00
2023-05-05T10:39:20.149Z,38.90
2023-05-05T10:42:05.312Z,38.77
2023-05-05T10:44:51.961Z,38.75
2023-05-05T10:47:40.331Z,38.09
2023-05-05T10:50:28.566Z,38.41
2023-05-05T10:53:27.877Z,38.52
2023-05-05T10:56:26.591Z,38.52
2023-05-05T10:59:37.083Z,37.90
2023-05-05T11:02:30.154Z,37.71
2023-05-05T11:05:18.093Z,37.25
2023-05-05T11:08:27.011Z,37.05
2023-05-05T11:11:16.031Z,37.63
2023-05-05T11:14:28.284Z,37.84
2023-05-05T11:17:45.341Z,37.38
2023-05-05T11:20:43.485Z,36.98
2023-05-05T11:23:29.994Z,36.94
2023-05-05T11:26:16.619Z,37.50
2023-05-05T11:29:04.596Z,37.59
2023-05-05T11:32:16.376Z,37.62
2023-05-05T11:35:06.164Z,37.04
2023-05-05T11:38:03.473Z,37.21
2023-05-05T11:40:50.088Z,37.34
2023-05-05T11:43:35.519Z,37.55
2023-05-05T11:46:21.225Z,37.01
2023-05-05T11:49:08.967Z,37.12
2023-05-05T11:52:04.637Z,36.98
2023-05-05T11:54:50.582Z,37.33
2023-05-05T11:57:35.624Z,36.81
2023-05-05T12:00:32.337Z,36.52
2023-05-05T12:03:17.769Z,36.27
2023-05-05T12:06:07.401Z,36.63
2023-05-05T12:08:53.650Z,36.55
2023-05-05T12:11:51.077Z,36.28
2023-05-05T12:14:36.574Z,35.77
2023-05-05T12:17:23.377Z,35.62
2023-05-05T12:20:10.451Z,36.09
2023-05-05T12:23:03.106Z,35.87
2023-05-05T12:25:48.348Z,36.23
2023-05-05T12:28:54.165Z,35.70
2023-05-05T12:31:41.729Z,35.24
2023-05-05T12:34:27.535Z,35.67
2023-05-05T12:37:12.981Z,36.03
2023-05-05T12:39:58.596Z,36.01
2023-05-05T12:42:45.123Z,35.83
2023-05-05T12:45:31.258Z,35.95
2023-05-05T12:48:22.872Z,36.04
2023-05-05T12:51:19.830Z,35.61
2023-05-05T12:54:11.332Z,35.72
2023-05-05T12:56:59.602Z,35.92
2023-05-05T12:59:45.040Z,35.83
2023-05-05T13:02:34.278Z,35.83
2023-05-05T13:05:52.551Z,35.89
2023-05-05T13:08:47.420Z,35.90
2023-05-05T13:11:37.621Z,35.73
2023-05-05T13:14:23.589Z,35.98
2023-05-05T13:17:09.801Z,36.41
2023-05-05T13:19:55.262Z,36.28
2023-05-05T13:22:40.739Z,36.63
2023-05-05T13:25:26.040Z,36.47
2023-05-05T13:28:11.281Z,36.08
2023-05-05T13:30:58.525Z,35.79
2023-05-05T13:33:43.568Z,35.90
2023-05-05T13:36:29.043Z,35.50
2023-05-05T13:39:14.334Z,36.06
2023-05-05T13:41:59.513Z,35.92
2023-05-05T13:44:45.024Z,36.20
2023-05-05T13:47:30.146Z,36.81
2023-05-05T13:50:15.572Z,36.46
2023-05-05T13:53:00.968Z,36.35
2023-05-05T13:55:46.434Z,36.13
2023-05-05T13:58:31.694Z,36.36
2023-05-05T14:01:17.192Z,36.01
2023-05-05T14:04:05.133Z,36.10
2023-05-05T14:06:51.317Z,36.43
2023-05-05T14:09:36.373Z,36.46
2023-05-05T14:12:21.531Z,36.37
2023-05-05T14:15:07.504Z,36.67
2023-05-05T14:17:53.272Z,36.68
2023-05-05T14:20:38.545Z,36.60
2023-05-05T14:23:23.718Z,36.68
2023-05-05T14:26:09.256Z,36.81
2023-05-05T14:28:54.568Z,36.94
2023-05-05T14:31:39.751Z,36.75
2023-05-05T14:34:25.196Z,37.02
2023-05-05T14:37:10.712Z,36.67
2023-05-05T14:39:56.258Z,36.35
2023-05-05T14:42:41.856Z,36.38
2023-05-05T14:45:29.638Z,36.57
2023-05-05T14:48:16.069Z,36.28
2023-05-05T14:51:01.656Z,36.14
2023-05-05T14:53:47.532Z,36.02
2023-05-05T14:56:32.934Z,36.27
2023-05-05T14:59:18.228Z,36.45
2023-05-05T15:02:03.444Z,36.85
2023-05-05T15:04:49.861Z,36.92
2023-05-05T15:07:34.918Z,36.56
